Time;durP1;ratioP1;P1;durP2;ratioP2;P2;SDS_P1;SDS_P2;PMS_P1;PMS_P2;Temp;Humidity;BMP_temperature;BMP_pressure;BME280_temperature;BME280_humidity;BME280_pressure;Samples;Min_cycle;Max_cycle;Signal;HPM_P1;HPM_P2
2024/02/21 08:01:28;;;;;;;3.47;1.60;;;;;;;;;;5092794;27;20405;-52
2024/02/21 08:03:55;;;;;;;4.65;1.70;;;;;;;;;;5073895;28;20539;-56
2024/02/21 08:06:22;;;;;;;3.92;1.75;;;;;;;;;;5074669;28;20076;-60
2024/02/21 08:08:49;;;;;;;5.47;1.95;;;;;;;;;;5074906;28;20052;-52
2024/02/21 08:11:15;;;;;;;7.40;2.05;;;;;;;;;;5067325;28;20075;-50
2024/02/21 08:13:42;;;;;;;3.40;1.67;;;;;;;;;;5073466;28;20044;-50
2024/02/21 08:16:09;;;;;;;2.78;1.45;;;;;;;;;;5076819;28;20071;-51
2024/02/21 08:18:38;;;;;;;3.97;1.40;;;;;;;;;;5078662;28;20044;-53
2024/02/21 08:21:05;;;;;;;4.30;1.30;;;;;;;;;;5068516;28;20424;-54
2024/02/21 08:23:33;;;;;;;3.45;1.60;;;;;;;;;;5079123;28;20072;-53
2024/02/21 08:26:00;;;;;;;4.35;1.55;;;;;;;;;;5078143;28;20080;-55
2024/02/21 08:28:26;;;;;;;3.33;1.35;;;;;;;;;;5074076;28;20044;-51
2024/02/21 08:30:53;;;;;;;4.63;1.52;;;;;;;;;;5071889;28;20154;-52
2024/02/21 08:33:24;;;;;;;2.45;1.50;;;;;;;;;;5069484;28;20080;-50
2024/02/21 08:35:52;;;;;;;3.50;1.50;;;;;;;;;;5070627;28;20059;-51
2024/02/21 08:38:19;;;;;;;4.47;2.28;;;;;;;;;;5076007;28;20393;-55
2024/02/21 08:40:46;;;;;;;4.07;1.70;;;;;;;;;;5071453;28;20081;-53
2024/02/21 08:43:13;;;;;;;5.20;1.80;;;;;;;;;;5068284;28;20076;-52
2024/02/21 08:45:39;;;;;;;3.85;1.60;;;;;;;;;;5070529;28;20488;-52
2024/02/21 08:48:08;;;;;;;3.88;1.38;;;;;;;;;;5072311;28;20492;-51
2024/02/21 08:50:36;;;;;;;3.63;1.40;;;;;;;;;;5070774;28;20087;-52
2024/02/21 08:53:04;;;;;;;4.78;1.55;;;;;;;;;;5067132;28;20397;-50
2024/02/21 08:55:31;;;;;;;3.35;1.08;;;;;;;;;;5070059;28;20091;-56
2024/02/21 08:57:58;;;;;;;2.95;0.90;;;;;;;;;;5071279;28;20125;-53
2024/02/21 09:00:26;;;;;;;3.63;1.05;;;;;;;;;;5067413;28;20470;-55
2024/02/21 09:02:55;;;;;;;4.30;1.15;;;;;;;;;;5075098;28;20087;-54
2024/02/21 09:05:22;;;;;;;1.77;0.90;;;;;;;;;;5068474;28;20055;-54
2024/02/21 09:07:52;;;;;;;4.05;1.10;;;;;;;;;;5068706;28;20124;-53
2024/02/21 09:10:20;;;;;;;3.63;1.38;;;;;;;;;;5066490;28;20484;-49
2024/02/21 09:12:47;;;;;;;3.72;1.23;;;;;;;;;;5053758;28;20102;-54
2024/02/21 09:15:14;;;;;;;3.13;1.20;;;;;;;;;;5054316;28;20466;-53
2024/02/21 09:17:40;;;;;;;2.05;0.93;;;;;;;;;;5054271;28;20072;-51
2024/02/21 09:20:11;;;;;;;3.30;0.88;;;;;;;;;;5054266;28;20049;-53
2024/02/21 09:22:39;;;;;;;3.90;0.82;;;;;;;;;;5053609;28;20106;-53
2024/02/21 09:25:07;;;;;;;2.13;1.00;;;;;;;;;;5054311;28;20481;-56
2024/02/21 09:27:36;;;;;;;1.48;0.95;;;;;;;;;;5054460;28;20056;-53
2024/02/21 09:30:04;;;;;;;1.35;0.88;;;;;;;;;;5054441;28;20137;-54
2024/02/21 09:32:32;;;;;;;1.77;1.00;;;;;;;;;;5054389;28;20053;-54
2024/02/21 09:34:59;;;;;;;2.25;0.85;;;;;;;;;;5054347;28;20045;-55
2024/02/21 09:37:25;;;;;;;1.00;0.52;;;;;;;;;;5054091;28;20073;-54
2024/02/21 09:39:52;;;;;;;2.88;0.90;;;;;;;;;;5053907;28;20049;-52
2024/02/21 09:42:22;;;;;;;1.73;0.80;;;;;;;;;;5053713;28;20550;-51
2024/02/21 09:44:51;;;;;;;2.15;0.80;;;;;;;;;;5053257;28;20079;-53
2024/02/21 09:47:23;;;;;;;1.65;0.90;;;;;;;;;;5053739;28;20077;-54
2024/02/21 09:49:50;;;;;;;1.70;0.70;;;;;;;;;;5053307;28;20558;-54
2024/02/21 09:52:18;;;;;;;1.65;0.90;;;;;;;;;;5053470;28;20053;-53
2024/02/21 09:54:45;;;;;;;2.97;0.93;;;;;;;;;;5053033;28;20535;-52
2024/02/21 09:57:12;;;;;;;3.03;0.93;;;;;;;;;;5053639;28;20279;-51
2024/02/21 09:59:41;;;;;;;1.90;0.85;;;;;;;;;;5053089;28;20044;-54
2024/02/21 10:02:11;;;;;;;1.58;0.80;;;;;;;;;;5053161;28;20052;-55
2024/02/21 10:04:38;;;;;;;1.60;0.82;;;;;;;;;;5052877;28;20067;-55
2024/02/21 10:07:05;;;;;;;1.58;0.80;;;;;;;;;;5051883;28;20049;-55
2024/02/21 10:09:33;;;;;;;1.55;0.80;;;;;;;;;;5052962;28;20324;-54
2024/02/21 10:12:09;;;;;;;3.20;1.00;;;;;;;;;;5053116;28;20044;-55
2024/02/21 10:14:36;;;;;;;2.03;1.02;;;;;;;;;;5053130;28;20539;-54
2024/02/21 10:17:04;;;;;;;2.13;0.90;;;;;;;;;;5053097;28;20053;-51
2024/02/21 10:19:33;;;;;;;2.42;0.70;;;;;;;;;;5052668;28;20060;-54
2024/02/21 10:22:04;;;;;;;4.18;1.52;;;;;;;;;;5052840;28;20049;-55
2024/02/21 10:24:32;;;;;;;1.58;0.90;;;;;;;;;;5051575;28;20114;-55
2024/02/21 10:27:08;;;;;;;1.85;0.82;;;;;;;;;;5052920;28;20051;-55
2024/02/21 10:29:35;;;;;;;1.80;0.80;;;;;;;;;;5045757;28;20111;-56
2024/02/21 10:32:08;;;;;;;2.35;1.15;;;;;;;;;;5051806;28;20048;-57
2024/02/21 10:34:37;;;;;;;1.48;0.77;;;;;;;;;;5052262;28;20044;-53
2024/02/21 10:37:04;;;;;;;1.52;0.93;;;;;;;;;;5052404;28;20098;-53
2024/02/21 10:39:31;;;;;;;2.15;0.90;;;;;;;;;;5052659;28;20447;-54
2024/02/21 10:42:03;;;;;;;2.60;1.15;;;;;;;;;;5052175;28;20132;-56
2024/02/21 10:44:31;;;;;;;2.95;1.00;;;;;;;;;;5052070;28;20073;-55
2024/02/21 10:46:58;;;;;;;3.13;1.30;;;;;;;;;;5052831;28;20061;-56
2024/02/21 10:49:26;;;;;;;3.45;1.05;;;;;;;;;;5052539;28;20087;-52
2024/02/21 10:52:14;;;;;;;4.43;1.20;;;;;;;;;;5052487;28;20053;-55
2024/02/21 10:54:46;;;;;;;3.05;1.10;;;;;;;;;;5046602;28;20111;-55
2024/02/21 10:57:14;;;;;;;2.90;1.10;;;;;;;;;;5052608;28;20145;-54
2024/02/21 10:59:41;;;;;;;3.20;1.10;;;;;;;;;;5052944;28;20067;-51
2024/02/21 11:02:08;;;;;;;3.25;0.85;;;;;;;;;;5052305;28;20053;-53
2024/02/21 11:04:37;;;;;;;1.58;0.80;;;;;;;;;;5051832;28;20175;-50
2024/02/21 11:07:06;;;;;;;2.60;0.77;;;;;;;;;;5051160;28;20048;-56
2024/02/21 11:09:34;;;;;;;2.67;0.90;;;;;;;;;;5052346;28;20226;-54
2024/02/21 11:12:03;;;;;;;2.90;0.93;;;;;;;;;;5052279;28;20049;-55
2024/02/21 11:14:32;;;;;;;2.38;1.00;;;;;;;;;;5051946;28;20424;-51
2024/02/21 11:16:59;;;;;;;2.05;0.70;;;;;;;;;;5052115;28;20136;-52
2024/02/21 11:19:27;;;;;;;1.50;0.68;;;;;;;;;;5051750;28;20053;-56
2024/02/21 11:21:56;;;;;;;2.88;0.95;;;;;;;;;;5051995;28;20049;-52
2024/02/21 11:24:29;;;;;;;2.80;1.13;;;;;;;;;;5051128;28;20139;-53
2024/02/21 11:26:56;;;;;;;2.38;0.90;;;;;;;;;;5052103;28;20049;-52
2024/02/21 11:29:27;;;;;;;3.33;0.93;;;;;;;;;;5051876;28;20083;-52
2024/02/21 11:31:54;;;;;;;;;;;;;;;;;;5052101;28;20077;-55
2024/02/21 11:34:21;;;;;;;1.95;0.60;;;;;;;;;;5051219;28;19971;-53
2024/02/21 11:36:49;;;;;;;1.67;0.77;;;;;;;;;;5052002;28;20077;-51
2024/02/21 11:39:21;;;;;;;4.68;1.30;;;;;;;;;;5051619;28;20048;-52
2024/02/21 11:42:03;;;;;;;1.20;0.50;;;;;;;;;;5051685;28;20061;-53
2024/02/21 11:44:30;;;;;;;2.03;0.70;;;;;;;;;;5051276;28;20072;-54
2024/02/21 11:46:57;;;;;;;2.13;1.00;;;;;;;;;;5051573;28;20132;-52
2024/02/21 11:49:26;;;;;;;2.42;0.70;;;;;;;;;;5051406;28;20103;-50
2024/02/21 11:51:59;;;;;;;0.98;0.57;;;;;;;;;;5051461;28;20489;-53
2024/02/21 11:54:26;;;;;;;1.05;0.50;;;;;;;;;;5051367;28;20048;-51
2024/02/21 11:56:54;;;;;;;1.50;0.57;;;;;;;;;;5051522;28;20078;-54
2024/02/21 11:59:21;;;;;;;1.85;0.65;;;;;;;;;;5051509;28;20079;-51
2024/02/21 12:01:48;;;;;;;1.17;0.55;;;;;;;;;;5051396;28;20081;-54
2024/02/21 12:04:16;;;;;;;3.17;0.80;;;;;;;;;;5051189;28;20081;-54
2024/02/21 12:06:44;;;;;;;1.25;0.50;;;;;;;;;;5051797;28;20488;-55
2024/02/21 12:09:10;;;;;;;1.58;0.60;;;;;;;;;;5050851;28;20157;-54
2024/02/21 12:11:37;;;;;;;1.50;0.80;;;;;;;;;;5051788;28;20092;-54
2024/02/21 12:14:05;;;;;;;1.30;0.60;;;;;;;;;;5051134;28;20092;-54
2024/02/21 12:16:33;;;;;;;0.95;0.50;;;;;;;;;;5051503;28;20041;-53
2024/02/21 12:19:01;;;;;;;2.50;0.82;;;;;;;;;;5051302;28;20446;-50
2024/02/21 12:21:28;;;;;;;1.30;0.60;;;;;;;;;;5051281;28;20085;-52
2024/02/21 12:23:55;;;;;;;1.00;0.65;;;;;;;;;;5051026;28;20080;-53
2024/02/21 12:26:22;;;;;;;4.47;1.20;;;;;;;;;;5051729;28;20481;-54
2024/02/21 12:28:49;;;;;;;1.95;0.70;;;;;;;;;;5051399;28;20087;-50
2024/02/21 12:31:17;;;;;;;2.10;0.80;;;;;;;;;;5050931;28;20103;-54
2024/02/21 12:33:44;;;;;;;1.45;0.57;;;;;;;;;;5050540;28;20088;-53
2024/02/21 12:36:11;;;;;;;0.85;0.50;;;;;;;;;;5050838;28;20467;-53
2024/02/21 12:38:38;;;;;;;1.00;0.50;;;;;;;;;;5051631;28;20049;-54
2024/02/21 12:41:05;;;;;;;2.40;0.50;;;;;;;;;;5050757;28;20049;-54
2024/02/21 12:43:31;;;;;;;1.10;0.52;;;;;;;;;;5050843;28;20084;-51
2024/02/21 12:45:58;;;;;;;2.15;0.50;;;;;;;;;;5051300;28;20067;-54
2024/02/21 12:48:26;;;;;;;1.00;0.57;;;;;;;;;;5055223;28;20067;-52
2024/02/21 12:50:53;;;;;;;0.82;0.40;;;;;;;;;;5054616;28;20041;-53
2024/02/21 12:53:21;;;;;;;1.48;0.50;;;;;;;;;;5054774;28;20103;-55
2024/02/21 12:55:48;;;;;;;0.95;0.50;;;;;;;;;;5054992;28;20048;-54
2024/02/21 12:58:15;;;;;;;0.85;0.50;;;;;;;;;;5054655;28;20040;-55
2024/02/21 13:00:42;;;;;;;1.38;0.88;;;;;;;;;;5044030;28;20045;-54
2024/02/21 13:03:09;;;;;;;1.48;0.50;;;;;;;;;;5053810;28;20060;-54
2024/02/21 13:05:38;;;;;;;1.13;0.60;;;;;;;;;;5055229;28;20049;-65
2024/02/21 13:08:05;;;;;;;2.88;0.70;;;;;;;;;;5051400;28;20061;-58
2024/02/21 13:10:33;;;;;;;0.98;0.50;;;;;;;;;;5054043;28;20084;-56
2024/02/21 13:13:00;;;;;;;2.00;0.63;;;;;;;;;;5052355;28;20480;-58
2024/02/21 13:15:27;;;;;;;1.95;0.80;;;;;;;;;;5053057;28;20044;-69
2024/02/21 13:17:54;;;;;;;2.40;0.80;;;;;;;;;;5061244;28;20113;-56
2024/02/21 13:20:21;;;;;;;1.45;0.80;;;;;;;;;;5057723;28;20099;-55
2024/02/21 13:22:50;;;;;;;1.38;0.60;;;;;;;;;;5056240;28;20500;-50
2024/02/21 13:25:20;;;;;;;2.05;0.60;;;;;;;;;;5058741;28;20080;-55
2024/02/21 13:27:46;;;;;;;1.02;0.63;;;;;;;;;;5056670;28;20424;-64
2024/02/21 13:30:15;;;;;;;2.63;0.70;;;;;;;;;;5054041;28;20141;-65
2024/02/21 13:32:42;;;;;;;2.47;0.90;;;;;;;;;;5050771;28;20129;-65
2024/02/21 13:35:11;;;;;;;5.00;1.85;;;;;;;;;;5062154;28;20114;-57
2024/02/21 13:37:38;;;;;;;1.38;0.50;;;;;;;;;;5053171;28;20118;-58
2024/02/21 13:40:08;;;;;;;1.80;0.60;;;;;;;;;;5051076;28;20046;-56
2024/02/21 13:42:35;;;;;;;1.00;0.55;;;;;;;;;;5053116;28;20053;-56
2024/02/21 13:45:02;;;;;;;1.80;0.55;;;;;;;;;;5056305;28;20727;-57
2024/02/21 13:47:29;;;;;;;1.15;0.60;;;;;;;;;;5049546;28;20083;-58
2024/02/21 13:49:56;;;;;;;2.10;0.50;;;;;;;;;;5051606;28;20071;-54
2024/02/21 13:52:26;;;;;;;1.02;0.70;;;;;;;;;;5055668;28;20044;-57
2024/02/21 13:54:52;;;;;;;1.17;0.50;;;;;;;;;;5055609;28;20060;-58
2024/02/21 13:57:20;;;;;;;1.75;0.60;;;;;;;;;;5052822;28;20221;-58
2024/02/21 13:59:47;;;;;;;2.72;0.70;;;;;;;;;;5054905;28;20041;-57
2024/02/21 14:02:14;;;;;;;2.42;1.35;;;;;;;;;;5053887;28;20513;-55
2024/02/21 14:04:42;;;;;;;1.48;0.60;;;;;;;;;;5054015;28;20044;-56
2024/02/21 14:07:09;;;;;;;1.73;0.60;;;;;;;;;;5054743;28;20044;-57
2024/02/21 14:09:35;;;;;;;1.73;0.60;;;;;;;;;;5054290;28;20093;-58
2024/02/21 14:12:02;;;;;;;0.80;0.50;;;;;;;;;;5049026;28;20172;-58
2024/02/21 14:14:30;;;;;;;0.82;0.40;;;;;;;;;;5058239;28;20169;-56
2024/02/21 14:16:57;;;;;;;0.70;0.50;;;;;;;;;;5054427;28;20082;-58
2024/02/21 14:19:24;;;;;;;1.95;0.60;;;;;;;;;;5050235;28;20069;-57
2024/02/21 14:21:51;;;;;;;2.15;0.68;;;;;;;;;;5055323;28;20408;-58
2024/02/21 14:24:17;;;;;;;1.17;0.73;;;;;;;;;;5052885;28;20080;-57
2024/02/21 14:26:44;;;;;;;2.03;0.80;;;;;;;;;;5056527;28;20079;-57
2024/02/21 14:29:11;;;;;;;1.77;0.98;;;;;;;;;;5058515;28;20637;-58
2024/02/21 14:31:39;;;;;;;1.17;0.73;;;;;;;;;;5052015;28;20597;-58
2024/02/21 14:34:07;;;;;;;1.35;0.52;;;;;;;;;;5057165;28;20099;-59
2024/02/21 14:36:34;;;;;;;1.08;0.60;;;;;;;;;;5054630;28;20041;-58
2024/02/21 14:39:00;;;;;;;1.13;0.60;;;;;;;;;;5055010;28;20500;-59
2024/02/21 14:41:27;;;;;;;1.20;0.50;;;;;;;;;;5053325;28;20721;-59
2024/02/21 14:43:55;;;;;;;2.55;0.90;;;;;;;;;;5049811;28;20128;-58
2024/02/21 14:46:22;;;;;;;2.00;0.80;;;;;;;;;;5052578;28;20130;-58
2024/02/21 14:48:50;;;;;;;2.22;0.60;;;;;;;;;;5053919;28;20075;-58
2024/02/21 14:51:17;;;;;;;2.28;0.75;;;;;;;;;;5054697;28;20102;-57
2024/02/21 14:53:43;;;;;;;2.45;0.60;;;;;;;;;;5046895;28;20077;-56
2024/02/21 14:56:14;;;;;;;1.35;0.60;;;;;;;;;;5054856;28;20057;-58
2024/02/21 14:58:41;;;;;;;2.15;0.60;;;;;;;;;;5050221;28;20041;-57
2024/02/21 15:01:08;;;;;;;1.58;0.80;;;;;;;;;;5048098;28;20124;-57
2024/02/21 15:03:36;;;;;;;1.92;0.60;;;;;;;;;;5049262;28;20064;-58
2024/02/21 15:06:04;;;;;;;1.27;0.50;;;;;;;;;;5053174;28;20051;-58
2024/02/21 15:08:31;;;;;;;0.80;0.47;;;;;;;;;;5053121;28;20448;-59
2024/02/21 15:10:58;;;;;;;2.13;0.63;;;;;;;;;;5061207;28;20048;-57
2024/02/21 15:13:25;;;;;;;3.03;1.17;;;;;;;;;;5050170;28;20132;-58
2024/02/21 15:15:52;;;;;;;1.50;0.60;;;;;;;;;;5055938;28;20073;-58
2024/02/21 15:18:19;;;;;;;2.53;0.70;;;;;;;;;;5058847;28;20076;-58
2024/02/21 15:20:46;;;;;;;1.23;0.55;;;;;;;;;;5056787;28;20566;-58
2024/02/21 15:23:14;;;;;;;0.95;0.50;;;;;;;;;;5051086;28;20052;-59
2024/02/21 15:25:43;;;;;;;1.10;0.50;;;;;;;;;;5056008;28;20511;-59
2024/02/21 15:28:10;;;;;;;1.95;0.73;;;;;;;;;;5055269;28;20044;-58
2024/02/21 15:30:36;;;;;;;0.88;0.50;;;;;;;;;;5048510;28;20047;-58
2024/02/21 15:33:04;;;;;;;1.33;0.93;;;;;;;;;;5050416;28;20136;-58
2024/02/21 15:35:31;;;;;;;1.20;0.50;;;;;;;;;;5052163;28;20128;-54
2024/02/21 15:37:58;;;;;;;1.92;0.70;;;;;;;;;;5049918;28;20083;-57
2024/02/21 15:40:26;;;;;;;1.50;0.60;;;;;;;;;;5051944;28;20538;-55
2024/02/21 15:42:53;;;;;;;1.90;0.70;;;;;;;;;;5050966;28;20106;-59
2024/02/21 15:45:20;;;;;;;2.00;0.70;;;;;;;;;;5050380;28;21364;-57
2024/02/21 15:47:48;;;;;;;1.58;0.60;;;;;;;;;;5043673;28;20064;-58
2024/02/21 15:50:14;;;;;;;1.58;0.63;;;;;;;;;;5050649;28;20080;-57
2024/02/21 15:52:41;;;;;;;2.17;0.75;;;;;;;;;;5055275;28;20076;-56
2024/02/21 15:55:11;;;;;;;3.63;0.82;;;;;;;;;;5046626;28;20496;-60
2024/02/21 15:57:40;;;;;;;2.20;0.80;;;;;;;;;;5044462;28;20055;-57
2024/02/21 16:00:12;;;;;;;3.00;0.68;;;;;;;;;;5047143;28;20048;-58
2024/02/21 16:02:38;;;;;;;4.45;1.00;;;;;;;;;;5053246;28;20128;-59
2024/02/21 16:05:09;;;;;;;3.25;1.20;;;;;;;;;;5055315;28;20087;-59
2024/02/21 16:07:36;;;;;;;2.83;1.40;;;;;;;;;;5050369;28;20055;-58
2024/02/21 16:10:03;;;;;;;4.68;1.20;;;;;;;;;;5049000;28;20072;-58
2024/02/21 16:12:30;;;;;;;3.80;1.27;;;;;;;;;;5050589;28;20556;-58
2024/02/21 16:14:58;;;;;;;3.35;1.40;;;;;;;;;;5044532;28;20088;-58
2024/02/21 16:17:25;;;;;;;3.05;1.65;;;;;;;;;;5049934;28;20091;-58
2024/02/21 16:19:51;;;;;;;3.30;1.50;;;;;;;;;;5045491;28;20121;-58
2024/02/21 16:22:18;;;;;;;3.28;1.45;;;;;;;;;;5050649;28;20081;-61
2024/02/21 16:24:45;;;;;;;19.50;14.70;;;;;;;;;;5053166;28;20072;-56
2024/02/21 16:27:12;;;;;;;7.72;5.25;;;;;;;;;;5052010;28;20123;-56
2024/02/21 16:29:39;;;;;;;101.57;88.70;;;;;;;;;;5053801;28;20124;-55
2024/02/21 16:32:08;;;;;;;14.18;8.35;;;;;;;;;;5051984;28;20064;-64
2024/02/21 16:34:35;;;;;;;5.40;2.45;;;;;;;;;;5053054;28;20063;-57
2024/02/21 16:37:02;;;;;;;3.92;1.83;;;;;;;;;;5051315;28;20041;-56
2024/02/21 16:39:28;;;;;;;4.70;2.00;;;;;;;;;;5052808;28;20045;-57
2024/02/21 16:42:00;;;;;;;5.22;2.80;;;;;;;;;;5051326;28;20080;-58
2024/02/21 16:44:26;;;;;;;4.50;2.75;;;;;;;;;;5044802;28;20048;-61
2024/02/21 16:46:54;;;;;;;5.05;2.22;;;;;;;;;;5046173;28;20640;-55
2024/02/21 16:49:22;;;;;;;5.88;2.05;;;;;;;;;;5050426;28;20483;-57
2024/02/21 16:51:49;;;;;;;6.28;2.08;;;;;;;;;;5042940;28;20073;-57
2024/02/21 16:54:22;;;;;;;3.15;1.60;;;;;;;;;;5050651;28;20052;-57
2024/02/21 16:56:49;;;;;;;3.92;1.70;;;;;;;;;;5052676;28;20049;-57
2024/02/21 16:59:15;;;;;;;6.65;2.60;;;;;;;;;;5052159;28;20037;-57
2024/02/21 17:01:43;;;;;;;6.75;3.03;;;;;;;;;;5046755;28;20077;-57
2024/02/21 17:04:10;;;;;;;5.55;3.20;;;;;;;;;;5053388;28;20045;-55
2024/02/21 17:06:38;;;;;;;4.57;2.40;;;;;;;;;;5057001;28;20103;-58
2024/02/21 17:09:07;;;;;;;5.47;2.83;;;;;;;;;;5055280;28;20611;-56
2024/02/21 17:11:34;;;;;;;7.20;2.90;;;;;;;;;;5050161;28;20420;-57
2024/02/21 17:14:01;;;;;;;4.95;2.33;;;;;;;;;;5052025;28;20128;-57
2024/02/21 17:16:28;;;;;;;3.50;1.90;;;;;;;;;;5046333;28;20073;-56
2024/02/21 17:18:54;;;;;;;4.60;2.13;;;;;;;;;;5054480;28;20060;-58
2024/02/21 17:21:21;;;;;;;5.40;2.00;;;;;;;;;;5056248;28;20453;-63
2024/02/21 17:23:49;;;;;;;5.10;2.38;;;;;;;;;;5054986;28;20128;-58
2024/02/21 17:26:16;;;;;;;6.85;2.20;;;;;;;;;;5053227;28;20140;-55
2024/02/21 17:28:43;;;;;;;5.00;2.10;;;;;;;;;;5060277;28;20128;-56
2024/02/21 17:31:11;;;;;;;5.20;2.30;;;;;;;;;;5057590;28;20048;-56
2024/02/21 17:33:38;;;;;;;5.72;2.10;;;;;;;;;;5055918;28;20037;-56
2024/02/21 17:36:06;;;;;;;5.72;2.72;;;;;;;;;;5055112;28;20065;-56
2024/02/21 17:38:32;;;;;;;7.43;2.22;;;;;;;;;;5054352;28;20098;-57
2024/02/21 17:41:00;;;;;;;5.65;1.92;;;;;;;;;;5054554;28;20045;-57
2024/02/21 17:43:32;;;;;;;3.97;2.17;;;;;;;;;;5049644;28;20076;-56
2024/02/21 17:46:01;;;;;;;5.10;2.28;;;;;;;;;;5049816;28;20562;-54
2024/02/21 17:48:28;;;;;;;5.65;2.22;;;;;;;;;;5051821;28;20090;-57
2024/02/21 17:50:55;;;;;;;6.80;3.40;;;;;;;;;;5051616;28;20081;-56
2024/02/21 17:53:21;;;;;;;9.23;3.75;;;;;;;;;;5049985;28;20455;-55
2024/02/21 17:55:48;;;;;;;8.98;4.05;;;;;;;;;;5046097;28;20049;-54
2024/02/21 17:58:16;;;;;;;7.57;3.58;;;;;;;;;;5051525;28;20501;-56
2024/02/21 18:00:45;;;;;;;11.10;3.80;;;;;;;;;;5051514;28;20091;-57
2024/02/21 18:03:11;;;;;;;8.43;4.28;;;;;;;;;;5050863;28;20079;-53
2024/02/21 18:05:38;;;;;;;13.38;5.00;;;;;;;;;;5044619;28;20084;-54
2024/02/21 18:08:06;;;;;;;9.05;4.85;;;;;;;;;;5051483;28;20577;-57
2024/02/21 18:10:33;;;;;;;11.80;4.35;;;;;;;;;;5051334;28;20495;-54
2024/02/21 18:13:00;;;;;;;17.98;4.95;;;;;;;;;;5050685;28;20079;-55
2024/02/21 18:15:28;;;;;;;11.63;4.80;;;;;;;;;;5051016;28;20045;-57
2024/02/21 18:17:55;;;;;;;13.68;5.30;;;;;;;;;;5051507;28;20512;-57
2024/02/21 18:20:22;;;;;;;9.40;5.03;;;;;;;;;;5049606;28;20049;-55
2024/02/21 18:22:49;;;;;;;12.93;6.80;;;;;;;;;;5050643;28;20127;-58
2024/02/21 18:25:17;;;;;;;11.40;5.38;;;;;;;;;;5051284;28;20067;-56
2024/02/21 18:27:44;;;;;;;11.18;4.18;;;;;;;;;;5051261;28;20052;-57
2024/02/21 18:30:12;;;;;;;8.90;4.10;;;;;;;;;;5047064;28;20079;-56
2024/02/21 18:32:40;;;;;;;7.03;3.25;;;;;;;;;;5050336;28;20053;-55
2024/02/21 18:35:08;;;;;;;6.00;3.00;;;;;;;;;;5050992;28;20063;-57
2024/02/21 18:37:34;;;;;;;7.80;3.45;;;;;;;;;;5051162;28;20088;-56
2024/02/21 18:40:01;;;;;;;8.20;2.70;;;;;;;;;;5050252;28;20141;-56
2024/02/21 18:42:28;;;;;;;8.10;3.28;;;;;;;;;;5042604;28;20083;-56
2024/02/21 18:44:54;;;;;;;7.30;2.92;;;;;;;;;;5049671;28;20085;-56
2024/02/21 18:47:21;;;;;;;7.75;3.28;;;;;;;;;;5050826;28;20550;-52
2024/02/21 18:49:50;;;;;;;7.20;3.60;;;;;;;;;;5050644;28;20080;-54
2024/02/21 18:52:18;;;;;;;6.45;3.63;;;;;;;;;;5050506;28;20066;-55
2024/02/21 18:54:46;;;;;;;6.18;2.80;;;;;;;;;;5048330;28;20041;-56
2024/02/21 18:57:15;;;;;;;7.35;3.70;;;;;;;;;;5050128;28;20124;-55
2024/02/21 18:59:42;;;;;;;5.82;2.80;;;;;;;;;;5050307;28;20440;-57
2024/02/21 19:02:08;;;;;;;7.68;3.13;;;;;;;;;;5049842;28;20045;-56
2024/02/21 19:04:35;;;;;;;7.03;3.20;;;;;;;;;;5049812;28;20080;-56
2024/02/21 19:07:03;;;;;;;8.98;3.38;;;;;;;;;;5050169;28;20091;-56
2024/02/21 19:09:30;;;;;;;6.43;3.60;;;;;;;;;;5046745;28;20088;-57
2024/02/21 19:11:56;;;;;;;7.93;3.63;;;;;;;;;;5044218;28;20732;-57
2024/02/21 19:14:23;;;;;;;9.68;4.53;;;;;;;;;;5049313;28;20045;-57
2024/02/21 19:16:51;;;;;;;6.25;3.65;;;;;;;;;;5049984;28;20076;-57
2024/02/21 19:19:19;;;;;;;6.00;3.65;;;;;;;;;;5050172;28;20079;-55
2024/02/21 19:21:45;;;;;;;7.47;3.40;;;;;;;;;;5048914;28;20123;-56
2024/02/21 19:24:13;;;;;;;7.55;3.50;;;;;;;;;;5049484;28;20137;-56
2024/02/21 19:26:40;;;;;;;8.18;4.10;;;;;;;;;;5050086;28;20108;-58
2024/02/21 19:29:07;;;;;;;7.25;3.47;;;;;;;;;;5050207;28;20144;-56
2024/02/21 19:31:34;;;;;;;8.30;3.42;;;;;;;;;;5049613;28;20099;-55
2024/02/21 19:34:00;;;;;;;6.28;3.10;;;;;;;;;;5049412;28;20072;-55
2024/02/21 19:36:27;;;;;;;5.85;3.35;;;;;;;;;;5048272;28;20076;-57
2024/02/21 19:38:54;;;;;;;7.07;3.38;;;;;;;;;;5049658;28;20077;-57
2024/02/21 19:41:22;;;;;;;9.77;4.70;;;;;;;;;;5049235;28;20140;-56
2024/02/21 19:43:49;;;;;;;6.07;3.40;;;;;;;;;;5048894;28;20052;-55
2024/02/21 19:46:18;;;;;;;10.25;4.90;;;;;;;;;;5049525;28;20040;-56
2024/02/21 19:48:45;;;;;;;6.60;3.73;;;;;;;;;;5049814;28;20132;-55
2024/02/21 19:51:12;;;;;;;5.95;3.50;;;;;;;;;;5049229;28;20080;-56
2024/02/21 19:53:39;;;;;;;6.72;3.20;;;;;;;;;;5045575;28;20045;-57
2024/02/21 19:56:07;;;;;;;7.15;4.00;;;;;;;;;;5046496;28;20612;-56
2024/02/21 19:58:35;;;;;;;9.10;4.32;;;;;;;;;;5049469;28;20049;-57
2024/02/21 20:01:03;;;;;;;6.95;3.50;;;;;;;;;;5049271;28;20515;-56
2024/02/21 20:03:29;;;;;;;7.65;3.72;;;;;;;;;;5043636;28;20052;-55
2024/02/21 20:05:56;;;;;;;6.38;3.17;;;;;;;;;;5049358;28;20479;-55
2024/02/21 20:08:23;;;;;;;8.48;3.60;;;;;;;;;;5049865;28;20080;-55
2024/02/21 20:10:51;;;;;;;7.15;3.00;;;;;;;;;;5049612;28;20270;-52
2024/02/21 20:13:18;;;;;;;5.57;2.97;;;;;;;;;;5048773;28;20118;-55
2024/02/21 20:15:46;;;;;;;6.50;3.17;;;;;;;;;;5049592;28;20087;-53
2024/02/21 20:18:13;;;;;;;5.53;3.22;;;;;;;;;;5047178;28;20046;-56
2024/02/21 20:20:40;;;;;;;6.72;3.30;;;;;;;;;;5041440;28;20049;-56
2024/02/21 20:23:12;;;;;;;6.07;2.92;;;;;;;;;;5046654;28;20095;-54
2024/02/21 20:25:39;;;;;;;6.78;3.47;;;;;;;;;;5049526;28;20136;-55
2024/02/21 20:28:06;;;;;;;8.50;3.90;;;;;;;;;;5049176;28;20087;-56
2024/02/21 20:30:33;;;;;;;7.20;3.85;;;;;;;;;;5049653;28;20114;-54
2024/02/21 20:33:02;;;;;;;8.05;3.83;;;;;;;;;;5048929;28;20493;-55
2024/02/21 20:35:29;;;;;;;6.28;3.05;;;;;;;;;;5043314;28;20052;-56
2024/02/21 20:37:56;;;;;;;7.63;3.33;;;;;;;;;;5049495;28;20094;-53
2024/02/21 20:40:23;;;;;;;7.43;4.20;;;;;;;;;;5049294;28;20040;-55
2024/02/21 20:42:50;;;;;;;6.68;3.88;;;;;;;;;;5047221;28;20123;-55
2024/02/21 20:45:17;;;;;;;8.52;4.45;;;;;;;;;;5049213;28;20132;-56
2024/02/21 20:47:44;;;;;;;8.50;4.00;;;;;;;;;;5049179;28;20056;-59
2024/02/21 20:50:12;;;;;;;6.20;3.35;;;;;;;;;;5049430;28;20122;-56
2024/02/21 20:52:39;;;;;;;6.65;3.15;;;;;;;;;;5048622;28;20080;-53
2024/02/21 20:55:06;;;;;;;6.40;3.10;;;;;;;;;;5048922;28;20081;-57
2024/02/21 20:57:33;;;;;;;7.07;2.92;;;;;;;;;;5049284;28;20107;-56
2024/02/21 21:00:00;;;;;;;6.18;3.17;;;;;;;;;;5048660;28;20052;-56
2024/02/21 21:02:26;;;;;;;6.75;3.20;;;;;;;;;;5048825;28;20107;-53
2024/02/21 21:04:53;;;;;;;5.82;3.22;;;;;;;;;;5047888;28;20077;-55
2024/02/21 21:07:22;;;;;;;6.22;2.90;;;;;;;;;;5049272;28;20057;-56
2024/02/21 21:09:48;;;;;;;4.47;2.70;;;;;;;;;;5052345;28;20102;-54
2024/02/21 21:12:16;;;;;;;4.97;2.70;;;;;;;;;;5052133;28;20470;-55
2024/02/21 21:14:42;;;;;;;6.40;3.47;;;;;;;;;;5051820;28;20080;-56
2024/02/21 21:17:09;;;;;;;7.43;3.38;;;;;;;;;;5052609;28;20080;-56
2024/02/21 21:19:36;;;;;;;6.53;3.35;;;;;;;;;;5050623;28;20099;-55
2024/02/21 21:22:04;;;;;;;6.55;3.53;;;;;;;;;;5051235;28;20053;-52
2024/02/21 21:24:33;;;;;;;5.05;2.97;;;;;;;;;;5051812;28;20045;-56
2024/02/21 21:27:00;;;;;;;5.72;3.22;;;;;;;;;;5052671;28;20080;-53
2024/02/21 21:29:27;;;;;;;7.03;3.42;;;;;;;;;;5052542;28;20424;-54
2024/02/21 21:31:53;;;;;;;6.88;3.22;;;;;;;;;;5051988;28;20041;-55
2024/02/21 21:34:20;;;;;;;5.45;3.03;;;;;;;;;;5051448;28;20088;-56
2024/02/21 21:36:47;;;;;;;4.82;2.80;;;;;;;;;;5051776;28;20041;-57
2024/02/21 21:39:16;;;;;;;10.00;3.00;;;;;;;;;;5051805;28;20081;-53
2024/02/21 21:41:44;;;;;;;6.18;3.35;;;;;;;;;;5052003;28;20421;-55
2024/02/21 21:44:11;;;;;;;5.20;2.70;;;;;;;;;;5051619;28;20128;-55
2024/02/21 21:46:39;;;;;;;5.60;2.78;;;;;;;;;;5052016;28;20416;-57
2024/02/21 21:49:06;;;;;;;4.68;2.47;;;;;;;;;;5051757;28;20067;-57
2024/02/21 21:51:32;;;;;;;4.78;2.88;;;;;;;;;;5051480;28;20098;-55
2024/02/21 21:53:59;;;;;;;6.50;2.75;;;;;;;;;;5050739;28;20071;-55
2024/02/21 21:56:26;;;;;;;5.85;2.97;;;;;;;;;;5051771;28;20128;-52
2024/02/21 21:58:54;;;;;;;4.95;2.53;;;;;;;;;;5050247;28;20085;-54
2024/02/21 22:01:21;;;;;;;5.72;2.78;;;;;;;;;;5047975;28;20072;-62
2024/02/21 22:03:47;;;;;;;4.88;2.40;;;;;;;;;;5049397;28;20076;-56
2024/02/21 22:06:14;;;;;;;6.28;3.20;;;;;;;;;;5045952;28;20124;-52
2024/02/21 22:08:41;;;;;;;4.65;2.65;;;;;;;;;;5050820;28;20091;-59
2024/02/21 22:11:12;;;;;;;6.22;2.83;;;;;;;;;;5050540;28;20130;-57
2024/02/21 22:13:39;;;;;;;5.88;3.10;;;;;;;;;;5050463;28;20055;-56
2024/02/21 22:16:07;;;;;;;4.90;2.78;;;;;;;;;;5045138;28;20077;-53
2024/02/21 22:18:34;;;;;;;5.43;3.20;;;;;;;;;;5050655;28;20140;-56
2024/02/21 22:21:02;;;;;;;6.22;3.00;;;;;;;;;;5048816;28;20087;-57
2024/02/21 22:23:29;;;;;;;4.43;2.45;;;;;;;;;;5042303;28;20072;-57
2024/02/21 22:25:55;;;;;;;4.25;2.17;;;;;;;;;;5050114;28;20075;-56
2024/02/21 22:28:23;;;;;;;4.70;2.67;;;;;;;;;;5052298;28;20123;-55
2024/02/21 22:30:50;;;;;;;7.13;3.33;;;;;;;;;;5052515;28;20127;-59
2024/02/21 22:33:18;;;;;;;5.32;2.70;;;;;;;;;;5045272;28;20127;-64
2024/02/21 22:35:45;;;;;;;6.28;2.80;;;;;;;;;;5056199;28;20190;-53
2024/02/21 22:38:12;;;;;;;5.43;2.55;;;;;;;;;;5043957;28;20118;-55
2024/02/21 22:40:39;;;;;;;4.90;3.08;;;;;;;;;;5054442;28;20068;-53
2024/02/21 22:43:06;;;;;;;19.77;17.23;;;;;;;;;;5051826;28;20472;-59
2024/02/21 22:45:32;;;;;;;9.25;6.55;;;;;;;;;;5055360;28;20084;-54